createdAt,value
2022-10-21T00:00:53.980Z,66.00
2022-10-21T00:03:23.250Z,67.78
2022-10-21T00:05:51.869Z,72.97
2022-10-21T00:08:20.735Z,71.25
2022-10-21T00:10:52.516Z,66.28
2022-10-21T00:13:20.550Z,64.78
2022-10-21T00:16:00.863Z,65.65
2022-10-21T00:18:29.058Z,73.35
2022-10-21T00:20:56.947Z,70.90
2022-10-21T00:23:25.050Z,69.00
2022-10-21T00:25:57.533Z,72.20
2022-10-21T00:28:25.493Z,71.20
2022-10-21T00:30:53.369Z,67.68
2022-10-21T00:33:22.695Z,76.78
2022-10-21T00:35:54.338Z,73.97
2022-10-21T00:40:55.401Z,62.70
2022-10-21T00:43:23.367Z,63.15
2022-10-21T00:45:53.777Z,58.70
2022-10-21T00:48:29.285Z,54.55
2022-10-21T00:51:02.539Z,53.25
2022-10-21T00:53:31.381Z,58.17
2022-10-21T00:56:02.847Z,56.95
2022-10-21T00:58:33.343Z,55.40
2022-10-21T01:01:03.544Z,51.78
2022-10-21T01:03:34.556Z,45.95
2022-10-21T01:06:04.571Z,49.10
2022-10-21T01:08:33.567Z,46.72
2022-10-21T01:11:03.123Z,43.92
2022-10-21T01:13:40.467Z,45.63
2022-10-21T01:16:16.631Z,44.80
2022-10-21T01:18:53.029Z,49.42
2022-10-21T01:21:31.801Z,41.45
2022-10-21T01:24:40.404Z,41.28
2022-10-21T01:27:24.529Z,39.55
2022-10-21T01:30:35.162Z,42.58
2022-10-21T01:33:35.898Z,37.85
2022-10-21T01:36:15.809Z,34.67
2022-10-21T01:38:46.913Z,39.38
2022-10-21T01:41:20.982Z,37.95
2022-10-21T01:43:56.179Z,38.58
2022-10-21T01:46:28.931Z,39.05
2022-10-21T01:49:01.785Z,36.65
2022-10-21T01:51:30.192Z,41.30
2022-10-21T01:54:03.713Z,38.72
2022-10-21T01:56:32.975Z,39.15
2022-10-21T01:59:03.852Z,45.40
2022-10-21T02:01:34.894Z,42.00
2022-10-21T02:04:05.814Z,44.40
2022-10-21T02:06:33.789Z,47.88
2022-10-21T02:09:02.130Z,42.50
2022-10-21T02:11:30.627Z,40.85
2022-10-21T02:14:03.768Z,35.17
2022-10-21T02:16:37.441Z,40.15
2022-10-21T02:19:07.037Z,43.78
2022-10-21T02:21:36.781Z,46.30
2022-10-21T02:24:08.617Z,48.33
2022-10-21T02:26:36.632Z,43.80
2022-10-21T02:29:05.122Z,45.17
2022-10-21T02:31:47.117Z,41.53
2022-10-21T02:34:27.085Z,43.05
2022-10-21T02:36:59.454Z,47.55
2022-10-21T02:41:58.910Z,43.95
2022-10-21T02:44:26.998Z,47.17
2022-10-21T02:46:56.277Z,44.13
2022-10-21T02:49:24.134Z,46.97
2022-10-21T02:51:52.194Z,44.70
2022-10-21T02:54:20.109Z,50.88
2022-10-21T02:56:47.964Z,47.60
2022-10-21T02:59:15.843Z,44.53
2022-10-21T03:01:43.704Z,41.85
2022-10-21T03:04:12.968Z,41.28
2022-10-21T03:06:40.826Z,43.80
2022-10-21T03:09:08.704Z,43.03
2022-10-21T03:11:36.571Z,54.42
2022-10-21T03:14:04.454Z,46.53
2022-10-21T03:16:32.473Z,47.72
2022-10-21T03:19:00.355Z,45.50
2022-10-21T03:21:29.561Z,47.75
2022-10-21T03:23:57.444Z,45.45
2022-10-21T03:26:25.368Z,46.88
2022-10-21T03:28:53.250Z,47.63
2022-10-21T03:31:21.093Z,44.25
2022-10-21T03:33:49.007Z,47.15
2022-10-21T03:36:16.915Z,45.85
2022-10-21T03:38:46.122Z,46.08
2022-10-21T03:41:14.027Z,44.35
2022-10-21T03:43:41.943Z,46.08
2022-10-21T03:46:09.842Z,47.63
2022-10-21T03:48:37.793Z,46.17
2022-10-21T03:51:05.918Z,44.25
2022-10-21T03:53:48.823Z,42.35
2022-10-21T03:56:18.052Z,45.17
2022-10-21T03:58:45.966Z,39.20
2022-10-21T04:01:14.683Z,42.08
2022-10-21T04:03:43.026Z,36.17
2022-10-21T04:06:11.018Z,40.47
2022-10-21T04:08:39.041Z,36.90
2022-10-21T04:11:07.060Z,36.88
2022-10-21T04:13:36.305Z,40.28
2022-10-21T04:16:07.818Z,41.00
2022-10-21T04:18:35.822Z,40.67
2022-10-21T04:21:03.752Z,42.70
2022-10-21T04:23:31.625Z,38.55
2022-10-21T04:25:59.507Z,46.40
2022-10-21T04:28:27.517Z,42.17
2022-10-21T04:30:56.778Z,43.65
2022-10-21T04:33:24.959Z,44.30
2022-10-21T04:35:54.736Z,45.42
2022-10-21T04:38:23.007Z,48.85
2022-10-21T04:40:57.425Z,49.35
2022-10-21T04:43:25.564Z,50.42
2022-10-21T04:45:53.482Z,54.53
2022-10-21T04:48:23.079Z,53.22
2022-10-21T04:50:51.638Z,53.78
2022-10-21T04:53:19.514Z,54.65
2022-10-21T04:55:50.952Z,57.20
2022-10-21T04:58:21.726Z,58.33
2022-10-21T05:00:50.306Z,58.42
2022-10-21T05:03:18.565Z,55.13
2022-10-21T05:05:50.047Z,58.78
2022-10-21T05:08:17.938Z,61.17
2022-10-21T05:10:45.982Z,62.60
2022-10-21T05:13:14.056Z,63.28
2022-10-21T05:15:42.151Z,69.07
2022-10-21T05:18:10.038Z,71.70
2022-10-21T05:20:37.890Z,78.13
2022-10-21T05:23:07.108Z,78.25
2022-10-21T05:25:35.152Z,85.30
2022-10-21T05:28:03.037Z,87.57
2022-10-21T05:30:31.033Z,91.18
2022-10-21T05:32:58.945Z,94.68
2022-10-21T05:35:26.891Z,95.75
2022-10-21T05:37:54.782Z,95.35
2022-10-21T05:40:24.319Z,90.97
2022-10-21T05:42:52.197Z,95.78
2022-10-21T05:45:20.140Z,94.13
2022-10-21T05:47:48.013Z,90.78
2022-10-21T05:50:16.083Z,94.88
2022-10-21T05:52:44.052Z,94.50
2022-10-21T05:55:12.406Z,86.55
2022-10-21T05:57:41.663Z,86.38
2022-10-21T06:00:10.874Z,82.85
2022-10-21T06:02:38.965Z,82.63
2022-10-21T06:05:07.585Z,86.03
2022-10-21T06:07:36.314Z,89.75
2022-10-21T06:10:06.207Z,88.95
2022-10-21T06:12:34.113Z,91.78
2022-10-21T06:15:03.344Z,93.18
2022-10-21T06:17:31.272Z,91.82
2022-10-21T06:19:59.132Z,90.35
2022-10-21T06:22:27.069Z,90.28
2022-10-21T06:24:54.975Z,87.40
2022-10-21T06:27:22.866Z,82.88
2022-10-21T06:29:51.331Z,78.30
2022-10-21T06:32:20.555Z,80.45
2022-10-21T06:34:48.446Z,75.97
2022-10-21T06:37:16.294Z,74.40
2022-10-21T06:39:44.222Z,71.90
2022-10-21T06:42:12.114Z,71.05
2022-10-21T06:44:39.994Z,67.03
2022-10-21T06:47:08.007Z,65.20
2022-10-21T06:49:37.282Z,65.97
2022-10-21T06:52:05.474Z,65.72
2022-10-21T06:54:33.386Z,59.33
2022-10-21T06:57:01.349Z,64.93
2022-10-21T06:59:29.358Z,61.53
2022-10-21T07:02:01.158Z,62.10
2022-10-21T07:04:29.887Z,63.58
2022-10-21T07:06:59.377Z,62.63
2022-10-21T07:09:27.321Z,66.18
2022-10-21T07:11:55.364Z,59.53
2022-10-21T07:14:23.864Z,60.08
2022-10-21T07:16:53.407Z,62.80
2022-10-21T07:19:21.351Z,67.55
2022-10-21T07:21:49.259Z,66.20
2022-10-21T07:24:22.304Z,60.08
2022-10-21T07:26:51.077Z,64.75
2022-10-21T07:29:19.563Z,68.68
2022-10-21T07:31:47.472Z,72.10
2022-10-21T07:34:15.493Z,67.75
2022-10-21T07:36:47.866Z,71.55
2022-10-21T07:41:48.037Z,71.22
2022-10-21T07:44:16.415Z,72.60
2022-10-21T07:46:45.391Z,72.57
2022-10-21T07:49:14.566Z,68.43
2022-10-21T07:51:42.975Z,71.22
2022-10-21T07:54:10.869Z,74.90
2022-10-21T07:56:42.754Z,72.18
2022-10-21T07:59:13.441Z,74.88
2022-10-21T08:01:44.507Z,73.20
2022-10-21T08:04:13.984Z,68.33
2022-10-21T08:06:41.947Z,73.30
2022-10-21T08:09:09.883Z,70.90
2022-10-21T08:11:38.981Z,70.97
2022-10-21T08:14:08.463Z,74.65
2022-10-21T08:16:38.099Z,74.90
2022-10-21T08:19:06.746Z,72.10
2022-10-21T08:21:34.725Z,69.55
2022-10-21T08:24:04.468Z,71.47
2022-10-21T08:26:32.656Z,74.18
2022-10-21T08:29:00.714Z,74.32
2022-10-21T08:31:28.602Z,67.15
2022-10-21T08:33:58.185Z,68.22
2022-10-21T08:36:27.070Z,70.38
2022-10-21T08:38:55.661Z,75.38
2022-10-21T08:42:01.922Z,69.22
2022-10-21T08:44:36.653Z,73.38
2022-10-21T08:47:13.104Z,72.82
2022-10-21T08:49:50.308Z,71.10
2022-10-21T08:52:23.433Z,70.70
2022-10-21T08:54:56.910Z,73.07
2022-10-21T08:57:24.995Z,73.22
2022-10-21T08:59:52.981Z,69.30
2022-10-21T09:02:36.987Z,72.00
2022-10-21T09:05:22.734Z,67.70
2022-10-21T09:08:02.398Z,68.00
2022-10-21T09:10:40.379Z,65.13
2022-10-21T09:13:16.605Z,63.50
2022-10-21T09:15:55.978Z,68.53
2022-10-21T09:18:35.752Z,66.00
2022-10-21T09:21:14.149Z,62.72
2022-10-21T09:23:53.331Z,64.25
2022-10-21T09:26:41.392Z,65.93
2022-10-21T09:29:25.135Z,65.20
2022-10-21T09:31:58.552Z,65.70
2022-10-21T09:34:41.793Z,59.50
2022-10-21T09:37:17.451Z,60.00
2022-10-21T09:39:51.960Z,55.47
2022-10-21T09:42:35.713Z,56.78
2022-10-21T09:45:20.203Z,58.63
2022-10-21T09:47:52.581Z,46.72
2022-10-21T09:50:20.998Z,46.80
2022-10-21T09:52:58.120Z,47.00
2022-10-21T09:55:26.831Z,44.67
2022-10-21T09:57:59.339Z,48.60
2022-10-21T10:00:43.538Z,43.47
2022-10-21T10:03:11.646Z,38.30
2022-10-21T10:05:43.580Z,22.90
2022-10-21T10:08:32.341Z,31.60
2022-10-21T10:11:18.603Z,27.00
2022-10-21T10:13:48.682Z,27.67
2022-10-21T10:16:34.585Z,23.63
2022-10-21T10:19:16.290Z,25.15
2022-10-21T10:21:44.906Z,16.90
2022-10-21T10:24:21.203Z,17.13
2022-10-21T10:26:50.167Z,15.93
2022-10-21T10:29:26.658Z,14.48
2022-10-21T10:31:57.838Z,13.05
2022-10-21T10:34:30.971Z,10.68
2022-10-21T10:37:05.445Z,11.80
2022-10-21T10:39:38.483Z,9.77
2022-10-21T10:42:07.406Z,13.48
2022-10-21T10:44:38.859Z,8.50
2022-10-21T10:47:09.283Z,11.73
2022-10-21T10:49:41.778Z,12.02
2022-10-21T10:52:21.472Z,10.30
2022-10-21T10:55:18.925Z,10.95
2022-10-21T10:58:06.157Z,10.88
2022-10-21T11:00:43.782Z,9.88
2022-10-21T11:03:16.631Z,10.98
2022-10-21T11:05:47.762Z,10.73
2022-10-21T11:08:18.701Z,10.98
2022-10-21T11:10:50.928Z,10.02
2022-10-21T11:16:11.231Z,7.95
2022-10-21T11:18:49.350Z,10.32
2022-10-21T11:21:37.486Z,7.75
2022-10-21T11:24:17.945Z,8.35
2022-10-21T11:26:55.414Z,9.45
2022-10-21T11:29:33.621Z,8.40
2022-10-21T11:32:11.922Z,6.78
2022-10-21T11:34:54.087Z,9.30
2022-10-21T11:37:31.493Z,9.07
2022-10-21T11:40:05.066Z,7.43
2022-10-21T11:42:41.406Z,8.52
2022-10-21T11:45:34.398Z,8.93
2022-10-21T11:48:13.887Z,8.60
2022-10-21T11:50:50.745Z,7.57
2022-10-21T11:53:33.590Z,6.20
2022-10-21T11:56:13.372Z,6.07
2022-10-21T11:58:53.645Z,4.80
2022-10-21T12:01:36.660Z,6.10
2022-10-21T12:04:24.336Z,7.90
2022-10-21T12:07:07.654Z,8.40
2022-10-21T12:09:43.036Z,7.15
2022-10-21T12:12:14.395Z,7.43
2022-10-21T12:14:46.437Z,5.30
2022-10-21T12:17:18.164Z,5.50
2022-10-21T12:19:52.857Z,5.30
2022-10-21T12:22:21.034Z,4.53
2022-10-21T12:24:53.726Z,4.15
2022-10-21T12:27:27.832Z,3.50
2022-10-21T12:30:07.005Z,4.40
2022-10-21T12:32:44.503Z,4.05
2022-10-21T12:35:16.806Z,3.80
2022-10-21T12:38:05.559Z,3.78
2022-10-21T12:40:40.252Z,3.42
2022-10-21T12:43:19.774Z,2.80
2022-10-21T12:46:02.258Z,4.10
2022-10-21T12:48:34.808Z,4.03
2022-10-21T12:51:05.156Z,3.08
2022-10-21T12:53:43.213Z,3.75
2022-10-21T12:56:12.308Z,3.17
2022-10-21T12:58:44.793Z,2.53
2022-10-21T13:01:42.829Z,2.67
2022-10-21T13:04:45.679Z,2.15
2022-10-21T13:07:30.702Z,2.47
2022-10-21T13:10:25.560Z,2.30
2022-10-21T13:13:30.950Z,2.38
2022-10-21T13:15:59.112Z,2.20
2022-10-21T13:18:53.877Z,2.20
2022-10-21T13:21:43.118Z,1.90
2022-10-21T13:24:23.911Z,2.00
2022-10-21T13:26:54.633Z,2.30
2022-10-21T13:29:43.408Z,1.77
2022-10-21T13:32:30.596Z,1.60
2022-10-21T13:35:29.453Z,1.98
2022-10-21T13:38:02.086Z,1.85
2022-10-21T13:40:33.898Z,1.70
2022-10-21T13:43:06.125Z,2.00
2022-10-21T13:45:36.538Z,2.10
2022-10-21T13:48:08.064Z,1.60
2022-10-21T13:50:41.149Z,2.10
2022-10-21T13:53:35.830Z,1.73
2022-10-21T13:56:05.324Z,1.95
2022-10-21T13:58:39.299Z,2.10
2022-10-21T14:01:13.019Z,1.98
2022-10-21T14:03:42.327Z,2.05
2022-10-21T14:06:16.964Z,2.00
2022-10-21T14:08:47.987Z,2.50
2022-10-21T14:11:19.222Z,1.80
2022-10-21T14:13:49.157Z,1.73
2022-10-21T14:16:23.234Z,2.00
2022-10-21T14:18:52.028Z,1.90
2022-10-21T14:21:24.711Z,1.73
2022-10-21T14:23:53.568Z,2.13
2022-10-21T14:26:22.085Z,1.80
2022-10-21T14:28:51.243Z,1.90
2022-10-21T14:31:20.057Z,1.65
2022-10-21T14:33:49.663Z,2.10
2022-10-21T14:36:20.851Z,2.05
2022-10-21T14:39:00.531Z,1.65
2022-10-21T14:41:33.652Z,1.75
2022-10-21T14:44:08.350Z,2.00
2022-10-21T14:46:44.516Z,1.92
2022-10-21T14:49:23.394Z,1.83
2022-10-21T14:51:57.082Z,1.67
2022-10-21T14:54:33.782Z,1.85
2022-10-21T14:57:03.899Z,1.80
2022-10-21T14:59:37.886Z,1.80
2022-10-21T15:02:06.709Z,1.58
2022-10-21T15:04:51.678Z,1.90
2022-10-21T15:07:28.895Z,1.90
2022-10-21T15:10:01.251Z,2.13
2022-10-21T15:12:33.972Z,1.80
2022-10-21T15:15:03.937Z,1.63
2022-10-21T15:17:34.872Z,1.77
2022-10-21T15:20:03.879Z,1.77
2022-10-21T15:22:34.860Z,1.63
2022-10-21T15:25:08.833Z,1.60
2022-10-21T15:27:43.070Z,1.52
2022-10-21T15:30:18.766Z,1.85
2022-10-21T15:32:47.283Z,2.13
2022-10-21T15:35:17.085Z,1.60
2022-10-21T15:37:48.157Z,1.85
2022-10-21T15:40:17.929Z,1.65
2022-10-21T15:42:46.575Z,1.65
2022-10-21T15:45:16.026Z,1.90
2022-10-21T15:47:43.930Z,2.00
2022-10-21T15:50:15.481Z,2.20
2022-10-21T15:52:43.556Z,1.85
2022-10-21T15:55:11.888Z,2.05
2022-10-21T15:57:42.002Z,2.40
2022-10-21T16:00:18.145Z,2.15
2022-10-21T16:02:46.457Z,2.10
2022-10-21T16:05:14.326Z,2.40
2022-10-21T16:07:42.913Z,2.45
2022-10-21T16:10:19.769Z,2.10
2022-10-21T16:12:49.622Z,2.20
2022-10-21T16:15:19.099Z,2.25
2022-10-21T16:17:49.877Z,2.28
2022-10-21T16:20:20.146Z,2.65
2022-10-21T16:22:48.021Z,2.70
2022-10-21T16:25:16.005Z,2.60
2022-10-21T16:27:55.653Z,2.33
2022-10-21T16:30:27.461Z,2.40
2022-10-21T16:32:57.127Z,3.00
2022-10-21T16:35:25.333Z,2.60
2022-10-21T16:37:53.640Z,2.90
2022-10-21T16:40:24.017Z,2.40
2022-10-21T16:42:52.894Z,2.67
2022-10-21T16:45:22.481Z,2.83
2022-10-21T16:47:56.693Z,3.22
2022-10-21T16:50:26.999Z,3.10
2022-10-21T16:52:54.875Z,3.15
2022-10-21T16:55:22.768Z,3.78
2022-10-21T16:57:50.681Z,3.30
2022-10-21T17:00:19.230Z,3.00
2022-10-21T17:02:50.016Z,3.63
2022-10-21T17:05:19.458Z,3.72
2022-10-21T17:07:47.461Z,3.75
2022-10-21T17:10:15.362Z,3.88
2022-10-21T17:12:43.652Z,4.38
2022-10-21T17:15:15.163Z,4.43
2022-10-21T17:17:43.168Z,4.65
2022-10-21T17:20:12.047Z,4.00
2022-10-21T17:22:41.341Z,5.03
2022-10-21T17:25:11.034Z,5.15
2022-10-21T17:27:39.201Z,4.50
2022-10-21T17:30:07.929Z,4.40
2022-10-21T17:32:36.200Z,4.97
2022-10-21T17:35:04.156Z,4.80
2022-10-21T17:37:32.018Z,4.60
2022-10-21T17:40:01.226Z,5.63
2022-10-21T17:42:29.112Z,5.38
2022-10-21T17:44:58.254Z,5.88
2022-10-21T17:47:26.113Z,4.70
2022-10-21T17:49:54.012Z,4.80
2022-10-21T17:52:21.869Z,5.68
2022-10-21T17:54:49.700Z,5.40
2022-10-21T17:57:19.052Z,6.68
2022-10-21T17:59:50.341Z,6.22
2022-10-21T18:02:18.334Z,6.57
2022-10-21T18:04:46.190Z,6.63
2022-10-21T18:07:16.920Z,5.45
2022-10-21T18:09:45.677Z,5.63
2022-10-21T18:12:14.307Z,4.60
2022-10-21T18:14:43.627Z,6.07
2022-10-21T18:17:11.810Z,5.05
2022-10-21T18:19:39.815Z,5.50
2022-10-21T18:22:07.721Z,4.43
2022-10-21T18:24:36.020Z,5.05
2022-10-21T18:27:03.965Z,4.15
2022-10-21T18:29:31.829Z,4.93
2022-10-21T18:32:01.074Z,4.82
2022-10-21T18:34:29.255Z,4.38
2022-10-21T18:36:59.499Z,4.82
2022-10-21T18:39:27.720Z,3.60
2022-10-21T18:41:55.598Z,4.72
2022-10-21T18:44:23.491Z,3.97
2022-10-21T18:46:53.784Z,4.50
2022-10-21T18:49:25.306Z,4.50
2022-10-21T18:51:53.165Z,4.13
2022-10-21T18:54:21.046Z,3.55
2022-10-21T18:56:48.852Z,4.03
2022-10-21T18:59:16.820Z,3.38
2022-10-21T19:01:44.790Z,3.63
2022-10-21T19:06:47.782Z,3.90
2022-10-21T19:09:17.501Z,4.32
2022-10-21T19:11:46.004Z,4.05
2022-10-21T19:14:14.663Z,4.10
2022-10-21T19:16:42.859Z,3.80
2022-10-21T19:19:10.861Z,4.20
2022-10-21T19:21:38.726Z,3.80
2022-10-21T19:24:08.634Z,5.15
2022-10-21T19:26:38.876Z,4.80
2022-10-21T19:29:08.751Z,4.20
2022-10-21T19:31:38.555Z,4.13
2022-10-21T19:34:06.778Z,4.85
2022-10-21T19:36:34.924Z,3.90
2022-10-21T19:39:02.822Z,4.10
2022-10-21T19:41:32.213Z,4.35
2022-10-21T19:44:00.329Z,4.38
2022-10-21T19:46:30.331Z,4.22
2022-10-21T19:48:59.016Z,4.30
2022-10-21T19:51:27.314Z,4.25
2022-10-21T19:53:55.934Z,3.78
2022-10-21T19:56:26.943Z,4.32
2022-10-21T19:58:58.756Z,4.30
2022-10-21T20:01:27.676Z,4.05
2022-10-21T20:03:56.047Z,4.10
2022-10-21T20:06:25.622Z,4.78
2022-10-21T20:08:57.483Z,4.45
2022-10-21T20:11:26.057Z,3.85
2022-10-21T20:13:54.722Z,4.70
2022-10-21T20:16:27.084Z,4.72
2022-10-21T20:21:23.974Z,4.82
2022-10-21T20:23:52.010Z,5.03
2022-10-21T20:26:20.220Z,4.75
2022-10-21T20:28:48.084Z,4.47
2022-10-21T20:31:17.351Z,5.05
2022-10-21T20:33:48.818Z,6.03
2022-10-21T20:36:18.529Z,5.47
2022-10-21T20:38:47.241Z,6.10
2022-10-21T20:41:17.474Z,5.63
2022-10-21T20:43:45.355Z,5.80
2022-10-21T20:46:14.605Z,6.65
2022-10-21T20:48:43.589Z,5.20
2022-10-21T20:51:14.769Z,6.25
2022-10-21T20:56:19.253Z,7.60
2022-10-21T20:58:47.267Z,8.45
2022-10-21T21:01:18.047Z,7.93
2022-10-21T21:03:46.700Z,8.07
2022-10-21T21:06:16.771Z,7.78
2022-10-21T21:08:53.330Z,8.60
2022-10-21T21:11:26.503Z,11.63
2022-10-21T21:13:54.373Z,10.35
2022-10-21T21:16:24.066Z,10.70
2022-10-21T21:18:53.986Z,11.15
2022-10-21T21:21:25.631Z,10.95
2022-10-21T21:23:54.222Z,12.70
2022-10-21T21:26:24.604Z,12.55
2022-10-21T21:28:52.932Z,13.50
2022-10-21T21:31:22.709Z,13.00
2022-10-21T21:33:51.073Z,13.32
2022-10-21T21:36:20.824Z,13.40
2022-10-21T21:38:50.276Z,12.73
2022-10-21T21:41:18.618Z,12.95
2022-10-21T21:43:47.186Z,14.13
2022-10-21T21:46:22.712Z,13.95
2022-10-21T21:48:54.886Z,13.18
2022-10-21T21:51:27.275Z,15.93
2022-10-21T21:53:57.197Z,15.20
2022-10-21T21:56:25.979Z,14.00
2022-10-21T21:58:54.983Z,16.60
2022-10-21T22:01:24.530Z,20.08
2022-10-21T22:03:52.722Z,18.38
2022-10-21T22:06:21.407Z,17.30
2022-10-21T22:08:50.242Z,16.58
2022-10-21T22:11:22.509Z,17.95
2022-10-21T22:16:19.863Z,19.90
2022-10-21T22:18:47.744Z,20.98
2022-10-21T22:21:17.186Z,21.73
2022-10-21T22:23:45.734Z,17.70
2022-10-21T22:26:14.932Z,19.55
2022-10-21T22:28:45.797Z,21.05
2022-10-21T22:31:15.701Z,24.23
2022-10-21T22:36:17.300Z,23.20
2022-10-21T22:38:45.734Z,23.60
2022-10-21T22:41:13.831Z,25.48
2022-10-21T22:43:42.782Z,24.10
2022-10-21T22:49:00.100Z,20.95
2022-10-21T22:51:27.953Z,25.40
2022-10-21T22:53:56.679Z,23.35
2022-10-21T22:56:25.171Z,23.85
2022-10-21T22:58:53.061Z,25.20
2022-10-21T23:01:24.054Z,21.17
2022-10-21T23:03:52.767Z,21.45
2022-10-21T23:06:20.636Z,22.10
2022-10-21T23:08:48.525Z,23.40
2022-10-21T23:11:16.726Z,22.67
2022-10-21T23:13:56.250Z,22.40
2022-10-21T23:16:32.244Z,21.80
2022-10-21T23:19:00.522Z,21.30
2022-10-21T23:21:28.981Z,21.00
2022-10-21T23:23:56.991Z,20.17
2022-10-21T23:26:25.044Z,21.17
2022-10-21T23:28:52.945Z,20.15
2022-10-21T23:31:20.944Z,23.50
2022-10-21T23:33:50.186Z,21.55
2022-10-21T23:36:18.161Z,20.25
2022-10-21T23:38:46.253Z,21.02
2022-10-21T23:41:14.580Z,18.52
2022-10-21T23:43:42.451Z,21.73
2022-10-21T23:46:10.292Z,16.90
2022-10-21T23:48:38.140Z,19.83
2022-10-21T23:51:07.452Z,17.38
2022-10-21T23:53:35.273Z,17.70
2022-10-21T23:56:03.193Z,18.52
2022-10-21T23:58:31.073Z,19.38
